Time;durP1;ratioP1;P1;durP2;ratioP2;P2;SDS_P1;SDS_P2;PMS_P1;PMS_P2;Temp;Humidity;BMP_temperature;BMP_pressure;BME280_temperature;BME280_humidity;BME280_pressure;Samples;Min_cycle;Max_cycle;Signal;HPM_P1;HPM_P2
2023/01/19 00:00:51;;;;;;;;;13.50;12.50;;;;;5.14;64.87;100544.81;1984067;28;2803388;-78
2023/01/19 00:02:02;;;;;;;;;12.00;12.00;;;;;5.16;65.06;100547.41;1999559;28;2798524;-78
2023/01/19 00:03:14;;;;;;;;;12.50;12.50;;;;;5.16;65.14;100540.44;1975975;28;2807855;-77
2023/01/19 00:04:25;;;;;;;;;14.50;14.00;;;;;5.17;64.79;100544.78;1961171;28;2811667;-77
2023/01/19 00:05:36;;;;;;;;;13.67;13.00;;;;;5.17;64.86;100543.91;1983312;28;1846143;-77
2023/01/19 00:06:47;;;;;;;;;18.75;13.25;;;;;5.17;64.98;100547.38;1967175;28;1864860;-77
2023/01/19 00:08:13;;;;;;;;;12.00;11.50;;;;;5.18;64.85;100548.25;1976177;28;2788822;-77
2023/01/19 00:09:23;;;;;;;;;12.50;12.00;;;;;5.19;64.73;100549.97;1976984;28;2789827;-77
2023/01/19 00:10:34;;;;;;;;;16.67;12.33;;;;;5.20;64.83;100553.44;1993506;28;3523149;-77
2023/01/19 00:11:45;;;;;;;;;15.33;10.00;;;;;5.21;64.93;100560.38;1995013;28;3525225;-77
2023/01/19 00:12:56;;;;;;;;;13.00;10.00;;;;;5.21;64.65;100549.97;2000436;28;2786837;-77
2023/01/19 00:14:07;;;;;;;;;17.00;11.33;;;;;5.22;65.09;100556.88;2002007;28;3532498;-77
2023/01/19 00:15:18;;;;;;;;;13.00;13.00;;;;;5.23;64.87;100559.47;1996860;28;2811112;-77
2023/01/19 00:16:29;;;;;;;;;14.00;13.00;;;;;5.23;64.23;100556.00;2000194;28;2808999;-77
2023/01/19 00:17:41;;;;;;;;;13.00;10.00;;;;;5.24;64.56;100566.41;1970686;28;3510643;-77
2023/01/19 00:18:54;;;;;;;;;9.83;6.83;;;;;5.23;64.46;100561.22;2004313;28;2748181;-77
2023/01/19 00:20:06;;;;;;;;;10.67;7.33;;;;;5.23;64.42;100561.22;1956101;28;2762772;-77
2023/01/19 00:21:20;;;;;;;;;10.33;8.50;;;;;5.22;64.59;100560.34;2011309;28;2768088;-77
2023/01/19 00:22:30;;;;;;;;;12.33;11.00;;;;;5.21;64.21;100557.78;1992211;28;3515880;-77
2023/01/19 00:23:46;;;;;;;;;10.67;10.67;;;;;5.22;64.56;100564.69;2006524;28;2777344;-77
2023/01/19 00:24:59;;;;;;;;;10.67;7.83;;;;;5.22;64.46;100564.69;2019013;28;2749222;-77
2023/01/19 00:26:09;;;;;;;;;10.00;10.00;;;;;5.21;64.55;100560.38;1968446;28;3515892;-77
2023/01/19 00:27:20;;;;;;;;;13.67;11.00;;;;;5.20;64.50;100562.13;1999028;28;3513793;-77
2023/01/19 00:28:31;;;;;;;;;9.67;9.00;;;;;5.20;64.17;100564.72;2011490;28;2744383;-77
2023/01/19 00:29:45;;;;;;;;;6.00;5.83;;;;;5.21;64.47;100573.41;1990351;28;2734676;-77
2023/01/19 00:30:55;;;;;;;;;10.00;10.00;;;;;5.21;64.59;100576.03;1984489;28;3505468;-77
2023/01/19 00:32:06;;;;;;;;;9.00;8.33;;;;;5.20;64.67;100575.16;2010669;28;1831503;-77
2023/01/19 00:33:17;;;;;;;;;9.33;7.67;;;;;5.20;64.73;100575.16;1992559;28;1829433;-77
2023/01/19 00:34:48;;;;;;;;;8.00;8.00;;;;;5.20;64.19;100571.66;1990882;28;2728903;-77
2023/01/19 00:36:01;;;;;;;;;9.50;9.50;;;;;5.20;64.82;100579.50;1990900;28;2744019;-77
2023/01/19 00:37:16;;;;;;;;;7.83;6.33;;;;;5.20;64.39;100571.66;1982010;28;2736720;-77
2023/01/19 00:38:26;;;;;;;;;13.00;9.33;;;;;5.18;64.43;100572.53;1977261;28;2770205;-77
2023/01/19 00:39:37;;;;;;;;;11.00;11.00;;;;;5.17;64.46;100568.22;1993638;28;3517951;-77
2023/01/19 00:40:48;;;;;;;;;7.00;3.00;;;;;5.18;64.20;100574.31;2004071;28;2754444;-78
2023/01/19 00:43:30;;;;;;;;;12.50;10.25;;;;;5.15;64.55;100580.41;1991333;28;1844497;-78
2023/01/19 00:44:41;;;;;;;;;12.25;10.75;;;;;5.16;64.81;100573.47;1991578;28;1841912;-78
2023/01/19 00:45:53;;;;;;;;;11.75;11.75;;;;;5.14;64.78;100570.88;2001540;28;1838875;-77
2023/01/19 00:47:04;;;;;;;;;11.67;11.67;;;;;5.15;64.47;100572.59;1985948;28;3517927;-77
2023/01/19 00:48:15;;;;;;;;;18.00;12.50;;;;;5.15;65.09;100575.22;1976692;28;2802342;-77
2023/01/19 00:49:26;;;;;;;;;13.00;9.33;;;;;5.16;64.76;100570.88;1987831;28;1836730;-77
2023/01/19 00:50:37;;;;;;;;;15.33;12.67;;;;;5.14;64.44;100568.25;1988455;28;3538744;-77
2023/01/19 00:51:48;;;;;;;;;14.00;12.00;;;;;5.13;64.65;100568.28;1980637;28;2808632;-77
2023/01/19 00:53:00;;;;;;;;;18.50;11.00;;;;;5.12;64.71;100577.84;2013087;28;1846178;-77
2023/01/19 00:54:11;;;;;;;;;12.00;11.00;;;;;5.12;64.79;100572.63;1998400;28;1848230;-77
2023/01/19 00:55:26;;;;;;;;;7.00;5.83;;;;;5.12;64.76;100577.84;2011964;28;2744019;-77
2023/01/19 00:56:38;;;;;;;;;12.00;11.25;;;;;5.14;64.96;100573.47;1999041;28;1845061;-77
2023/01/19 00:57:49;;;;;;;;;13.00;11.00;;;;;5.14;64.88;100578.69;1998606;28;1850265;-77
2023/01/19 00:59:00;;;;;;;;;17.67;13.00;;;;;5.15;65.15;100571.75;1982008;28;3545029;-77
2023/01/19 01:00:13;;;;;;;;;14.67;11.00;;;;;5.17;65.03;100577.78;1969333;28;3517991;-77
2023/01/19 01:01:24;;;;;;;;;12.00;12.00;;;;;5.18;64.76;100577.75;1984233;28;3528351;-77
2023/01/19 01:02:36;;;;;;;;;10.00;10.00;;;;;5.18;65.11;100582.97;2000075;28;2771194;-78
2023/01/19 01:03:46;;;;;;;;;14.00;10.00;;;;;5.20;64.63;100584.69;1984277;28;2779412;-78
2023/01/19 01:05:01;;;;;;;;;12.25;11.75;;;;;5.19;64.63;100591.66;2011150;28;1850316;-77
2023/01/19 01:06:12;;;;;;;;;17.00;13.50;;;;;5.21;64.87;100589.03;1983987;28;2806860;-77
2023/01/19 01:07:23;;;;;;;;;13.00;11.00;;;;;5.21;64.81;100595.09;1985329;28;2794025;-77
2023/01/19 01:08:34;;;;;;;;;14.25;12.25;;;;;5.20;64.56;100596.00;1998104;28;1839920;-77
2023/01/19 01:09:45;;;;;;;;;14.33;11.67;;;;;5.21;64.51;100596.88;1973154;28;3517974;-77
2023/01/19 01:10:56;;;;;;;;;15.00;15.00;;;;;5.20;64.51;100592.53;1991462;28;2803392;-77
2023/01/19 01:12:08;;;;;;;;;13.50;11.25;;;;;5.17;64.57;100594.28;1979800;28;1840931;-77
2023/01/19 01:13:18;;;;;;;;;17.50;14.50;;;;;5.16;64.42;100592.56;1975323;28;2826396;-77
2023/01/19 01:14:29;;;;;;;;;19.50;15.00;;;;;5.14;64.47;100596.94;1980120;28;2830486;-77
2023/01/19 01:15:40;;;;;;;;;13.00;11.00;;;;;5.14;64.88;100598.66;1983565;28;2787791;-77
2023/01/19 01:16:51;;;;;;;;;13.00;12.00;;;;;5.14;64.83;100596.06;2007449;28;2814857;-77
2023/01/19 01:18:02;;;;;;;;;14.00;11.00;;;;;5.14;64.74;100594.31;1992985;28;2784631;-77
2023/01/19 01:19:13;;;;;;;;;18.00;14.50;;;;;5.15;64.52;100600.41;1974669;28;2816897;-77
2023/01/19 01:20:27;;;;;;;;;14.50;14.50;;;;;5.15;64.53;100600.41;2009222;28;1854475;-77
2023/01/19 01:21:38;;;;;;;;;19.00;15.00;;;;;5.15;64.37;100603.88;1984134;28;2823226;-77
2023/01/19 01:22:51;;;;;;;;;20.50;14.50;;;;;5.17;64.66;100611.66;1971400;28;2821103;-77
2023/01/19 01:24:03;;;;;;;;;16.00;14.00;;;;;5.16;64.81;100607.34;1970831;28;1852404;-77
2023/01/19 01:25:17;;;;;;;;;29.00;24.00;;;;;5.18;64.66;100623.81;1984421;28;3591850;-77
2023/01/19 01:26:28;;;;;;;;;27.33;18.33;;;;;5.17;65.13;100615.13;1984352;28;3589779;-77
2023/01/19 01:27:41;;;;;;;;;22.60;16.80;;;;;5.18;64.90;100622.06;2009766;28;1844074;-77
2023/01/19 01:28:51;;;;;;;;;15.00;13.50;;;;;5.20;65.15;100613.38;1983918;28;2807554;-77
2023/01/19 01:30:03;;;;;;;;;14.25;11.75;;;;;5.21;64.51;100628.13;2020484;28;1822181;-77
2023/01/19 01:31:13;;;;;;;;;17.00;13.00;;;;;5.20;64.98;100623.78;1961212;28;2815233;-77
2023/01/19 01:32:25;;;;;;;;;21.50;15.00;;;;;5.17;64.98;100627.28;1975268;28;2810079;-77
2023/01/19 01:33:35;;;;;;;;;17.50;14.00;;;;;5.15;64.62;100629.94;1977374;28;2820050;-77
2023/01/19 01:34:47;;;;;;;;;15.50;13.00;;;;;5.11;64.61;100632.59;1985394;28;1829428;-77
2023/01/19 01:35:57;;;;;;;;;16.00;14.00;;;;;5.09;64.76;100635.19;1954089;28;3550186;-77
2023/01/19 01:37:10;;;;;;;;;18.20;14.00;;;;;5.06;65.04;100640.47;1980624;28;1839924;-77
2023/01/19 01:38:21;;;;;;;;;19.00;15.00;;;;;5.05;65.14;100631.78;1975066;28;2838235;-77
2023/01/19 01:39:36;;;;;;;;;16.75;13.25;;;;;5.05;65.06;100639.59;1987122;28;1853996;-77
2023/01/19 01:40:46;;;;;;;;;21.00;16.50;;;;;5.05;65.25;100644.81;1983974;28;2826296;-77
2023/01/19 01:41:57;;;;;;;;;21.00;13.00;;;;;5.07;64.62;100644.78;1975547;28;2817928;-77
2023/01/19 01:43:12;;;;;;;;;19.00;16.50;;;;;5.04;64.83;100645.69;1967772;28;2841945;-77
2023/01/19 01:44:50;;;;;;;;;18.50;15.17;;;;;5.02;64.95;100639.63;1984096;28;1828411;-77
2023/01/19 01:46:01;;;;;;;;;18.00;14.00;;;;;5.03;64.75;100637.88;1975119;28;2829452;-77
2023/01/19 01:47:12;;;;;;;;;19.00;17.00;;;;;5.03;64.93;100635.28;1977619;28;2825239;-77
2023/01/19 01:48:29;;;;;;;;;18.00;16.50;;;;;5.02;64.72;100639.63;1966054;28;2814925;-77
2023/01/19 01:49:40;;;;;;;;;17.00;12.00;;;;;5.01;64.72;100643.09;1952218;28;2811726;-77
2023/01/19 01:52:26;;;;;;;;;19.00;14.50;;;;;5.02;64.27;100650.03;1952685;28;2830482;-77
2023/01/19 01:53:38;;;;;;;;;16.00;12.50;;;;;5.01;64.35;100652.69;1952784;28;2817979;-78
2023/01/19 01:54:49;;;;;;;;;14.50;14.50;;;;;4.98;64.94;100658.78;1976348;28;2821479;-78
2023/01/19 01:56:04;;;;;;;;;16.50;14.00;;;;;4.97;64.46;100653.56;1963537;28;2821072;-78
2023/01/19 01:57:15;;;;;;;;;17.00;12.00;;;;;4.93;64.54;100655.38;1950784;28;2806470;-77
2023/01/19 01:58:27;;;;;;;;;13.50;13.00;;;;;4.92;64.14;100662.31;1982711;28;1845102;-77
2023/01/19 01:59:47;;;;;;;;;16.00;13.50;;;;;4.91;64.71;100658.00;1983470;28;2812766;-77
2023/01/19 02:03:59;;;;;;;;;13.00;12.67;;;;;4.90;64.47;100653.66;1953565;28;3529406;-77
2023/01/19 02:05:33;;;;;;;;;17.00;13.50;;;;;4.89;65.00;100659.72;1990321;28;2811750;-77
2023/01/19 02:13:24;;;;;;;;;23.50;15.00;;;;;4.86;64.81;100653.69;1984094;28;2829477;-78
2023/01/19 02:14:36;;;;;;;;;13.25;11.75;;;;;4.86;64.95;100662.38;1983113;28;1848230;-77
2023/01/19 02:15:50;;;;;;;;;19.50;17.50;;;;;4.86;65.12;100659.78;1989143;28;2829428;-77
2023/01/19 02:17:01;;;;;;;;;18.00;13.00;;;;;4.85;65.25;100658.03;1967158;28;2814874;-77
2023/01/19 02:18:12;;;;;;;;;19.75;17.00;;;;;4.86;65.14;100656.31;1984680;28;1829414;-77
2023/01/19 02:19:31;;;;;;;;;20.00;16.00;;;;;4.87;64.79;100663.22;1960337;28;2833572;-77
2023/01/19 02:20:52;;;;;;;;;22.00;14.50;;;;;4.87;65.65;100661.50;1968325;28;2811736;-77
2023/01/19 02:22:11;;;;;;;;;19.50;14.50;;;;;4.88;65.42;100660.63;1987931;28;2818996;-77
2023/01/19 02:23:39;;;;;;;;;17.50;13.00;;;;;4.89;65.49;100664.94;1961561;28;2816271;-77
2023/01/19 02:24:51;;;;;;;;;16.00;11.33;;;;;4.90;64.92;100663.19;1961788;28;3528396;-77
2023/01/19 02:26:03;;;;;;;;;19.50;15.00;;;;;4.89;65.12;100670.16;1983222;28;2810692;-77
2023/01/19 02:27:14;;;;;;;;;19.00;15.50;;;;;4.88;64.95;100670.16;1967450;28;2815903;-77
2023/01/19 02:28:29;;;;;;;;;20.00;16.33;;;;;4.87;65.37;100674.50;2017508;28;1835754;-77
2023/01/19 02:29:40;;;;;;;;;17.00;14.00;;;;;4.89;65.18;100675.34;1962391;28;2823207;-77
2023/01/19 02:30:51;;;;;;;;;13.00;12.50;;;;;4.90;65.27;100671.88;1967943;28;2802319;-77
2023/01/19 02:32:04;;;;;;;;;13.00;13.00;;;;;4.89;65.18;100667.53;1976630;28;1845117;-77
2023/01/19 02:33:17;;;;;;;;;18.83;14.33;;;;;4.90;65.05;100676.22;2012214;28;1839951;-77
2023/01/19 02:34:29;;;;;;;;;23.00;17.50;;;;;4.90;65.16;100671.00;1962175;28;2820046;-77
2023/01/19 02:35:43;;;;;;;;;17.80;13.20;;;;;4.93;65.13;100671.84;1979718;28;2819025;-77
2023/01/19 02:37:05;;;;;;;;;21.14;15.86;;;;;4.93;64.89;100676.19;1982722;28;1837871;-77
2023/01/19 02:38:17;;;;;;;;;20.50;16.00;;;;;4.93;65.22;100671.00;1977369;28;2827345;-77
2023/01/19 02:39:32;;;;;;;;;13.00;13.00;;;;;4.95;64.86;100669.22;1955152;28;2779822;-77
2023/01/19 02:40:45;;;;;;;;;17.00;13.50;;;;;4.94;64.99;100673.56;1981670;28;2822157;-77
2023/01/19 02:42:02;;;;;;;;;17.50;14.50;;;;;4.92;64.77;100675.34;1961342;28;2814846;-77
2023/01/19 02:43:15;;;;;;;;;18.50;17.50;;;;;4.91;64.94;100677.97;1986449;28;2829421;-77
2023/01/19 02:44:29;;;;;;;;;13.83;12.50;;;;;4.91;64.57;100672.75;1997511;28;1831584;-77
2023/01/19 02:45:43;;;;;;;;;21.67;18.50;;;;;4.91;64.73;100672.75;1994498;28;1840921;-77
2023/01/19 02:46:56;;;;;;;;;21.83;17.33;;;;;4.91;65.22;100673.63;1995071;28;1840915;-77
2023/01/19 02:48:07;;;;;;;;;17.00;15.00;;;;;4.92;65.01;100669.25;1955130;28;3544027;-77
2023/01/19 02:49:18;;;;;;;;;19.50;17.50;;;;;4.93;64.75;100673.59;2009385;28;1842031;-77
2023/01/19 02:50:37;;;;;;;;;25.00;20.00;;;;;4.93;64.99;100671.00;1962661;28;2824461;-77
2023/01/19 02:51:48;;;;;;;;;17.50;14.50;;;;;4.91;65.06;100667.53;1962803;28;2801333;-77
2023/01/19 02:53:24;;;;;;;;;18.50;17.00;;;;;4.91;64.79;100660.59;1992511;28;2812762;-77
2023/01/19 02:54:59;;;;;;;;;20.50;16.50;;;;;4.92;65.06;100662.31;1961743;28;2822170;-77
2023/01/19 02:56:28;;;;;;;;;18.00;17.00;;;;;4.93;64.99;100661.44;1963026;28;2836716;-77
2023/01/19 02:58:10;;;;;;;;;19.50;16.50;;;;;4.94;64.84;100662.28;1969778;28;2833624;-77
2023/01/19 02:59:37;;;;;;;;;13.00;12.00;;;;;4.94;65.20;100660.53;1961504;28;2795052;-77
2023/01/19 03:01:18;;;;;;;;;16.33;16.00;;;;;4.93;64.95;100658.84;1980685;28;3559977;-77
2023/01/19 03:02:37;;;;;;;;;18.00;16.50;;;;;4.93;65.17;100661.44;1977318;28;2820046;-77
2023/01/19 03:04:10;;;;;;;;;18.00;16.00;;;;;4.92;64.59;100658.84;1953850;28;2825255;-77
2023/01/19 03:05:45;;;;;;;;;15.50;13.50;;;;;4.91;64.93;100657.13;1953347;28;2800673;-77
2023/01/19 03:07:26;;;;;;;;;17.00;16.00;;;;;4.91;64.89;100663.19;1972802;28;2809627;-77
2023/01/19 03:08:53;;;;;;;;;26.50;20.00;;;;;4.91;65.26;100658.00;1958274;28;2839851;-77
2023/01/19 03:10:22;;;;;;;;;14.33;9.67;;;;;4.91;64.94;100664.94;1966336;28;3504390;-77
2023/01/19 03:11:37;;;;;;;;;20.00;19.00;;;;;4.91;64.93;100663.19;1983466;28;2824261;-77
2023/01/19 03:13:13;;;;;;;;;16.00;15.00;;;;;4.92;65.33;100661.44;1955358;28;2824269;-77
2023/01/19 03:14:29;;;;;;;;;20.50;17.00;;;;;4.90;64.84;100656.25;1953187;28;2827361;-78
2023/01/19 03:15:39;;;;;;;;;29.00;24.00;;;;;4.91;64.96;100657.13;1954331;28;2836728;-78
2023/01/19 03:16:56;;;;;;;;;21.00;18.75;;;;;4.90;64.74;100660.59;1984833;28;1835660;-78
2023/01/19 03:18:13;;;;;;;;;22.17;18.50;;;;;4.89;64.99;100659.72;1997067;28;1829553;-77
2023/01/19 03:19:40;;;;;;;;;19.50;15.83;;;;;4.89;65.00;100657.13;1996767;28;1845117;-77
2023/01/19 03:20:56;;;;;;;;;20.50;14.50;;;;;4.89;64.95;100657.13;1960485;28;2830479;-77
2023/01/19 03:22:12;;;;;;;;;20.50;16.00;;;;;4.89;65.34;100654.50;1959313;28;2821099;-77
2023/01/19 03:23:28;;;;;;;;;18.00;14.00;;;;;4.89;65.45;100659.72;1952995;28;2820070;-77
2023/01/19 03:24:43;;;;;;;;;17.00;17.00;;;;;4.89;65.21;100659.72;1953564;28;2827338;-77
2023/01/19 03:25:56;;;;;;;;;19.50;17.50;;;;;4.91;64.89;100662.34;1954739;28;2825273;-77
2023/01/19 03:27:13;;;;;;;;;19.75;13.25;;;;;4.92;65.56;100662.31;1969348;28;1845074;-77
2023/01/19 03:28:29;;;;;;;;;18.67;14.67;;;;;4.92;64.94;100659.69;2013631;28;1837841;-77
2023/01/19 03:29:45;;;;;;;;;13.67;10.33;;;;;4.93;64.62;100660.56;1962956;28;3517959;-77
2023/01/19 03:31:07;;;;;;;;;19.50;16.50;;;;;4.92;64.67;100661.44;1979128;28;2826304;-77
2023/01/19 03:32:23;;;;;;;;;20.50;18.00;;;;;4.90;64.92;100661.47;1961906;28;2828388;-77
2023/01/19 03:33:40;;;;;;;;;22.33;17.00;;;;;4.90;64.85;100661.47;1988957;28;1839991;-77
2023/01/19 03:34:54;;;;;;;;;24.67;19.33;;;;;4.89;65.05;100659.72;1954758;28;2830604;-77
2023/01/19 03:36:11;;;;;;;;;20.00;16.50;;;;;4.88;64.74;100658.03;1976994;28;2830470;-77
2023/01/19 03:37:25;;;;;;;;;20.00;20.00;;;;;4.84;64.55;100654.56;1956960;28;2831516;-77
2023/01/19 03:38:41;;;;;;;;;19.33;17.67;;;;;4.83;64.70;100659.81;2013016;28;1844091;-77
2023/01/19 03:39:52;;;;;;;;;20.00;18.50;;;;;4.80;64.70;100662.44;1961363;28;2826311;-77
2023/01/19 03:41:11;;;;;;;;;23.00;16.20;;;;;4.74;64.69;100655.56;1984563;28;1836776;-77
2023/01/19 03:42:24;;;;;;;;;20.00;16.50;;;;;4.72;64.79;100655.56;1977981;28;2811729;-77
2023/01/19 03:43:37;;;;;;;;;18.00;13.00;;;;;4.70;64.61;100662.53;1961545;28;2796104;-77
2023/01/19 03:44:55;;;;;;;;;19.67;17.00;;;;;4.71;64.62;100669.47;1989493;28;1834731;-77
2023/01/19 03:46:15;;;;;;;;;20.50;19.17;;;;;4.72;64.82;100670.31;1987573;28;1842016;-77
2023/01/19 03:47:27;;;;;;;;;23.00;17.33;;;;;4.72;65.02;100665.97;1962359;28;3566872;-77
2023/01/19 03:48:38;;;;;;;;;21.50;16.50;;;;;4.72;64.92;100667.72;1985349;28;2828376;-77
2023/01/19 03:49:52;;;;;;;;;31.33;23.33;;;;;4.72;65.12;100667.72;1985051;28;3598147;-77
2023/01/19 03:51:06;;;;;;;;;16.50;16.50;;;;;4.71;64.98;100674.69;1979516;28;2817946;-77
2023/01/19 03:52:17;;;;;;;;;20.00;20.00;;;;;4.72;65.42;100672.91;1954409;28;2824201;-77
2023/01/19 03:53:28;;;;;;;;;23.33;18.67;;;;;4.73;65.62;100674.66;1975742;28;3561731;-77
2023/01/19 03:54:40;;;;;;;;;22.25;20.75;;;;;4.76;65.32;100678.97;2002098;28;1842050;-77
2023/01/19 03:55:53;;;;;;;;;25.67;17.33;;;;;4.78;65.57;100677.22;1954169;28;3586714;-77
2023/01/19 03:57:04;;;;;;;;;20.33;20.33;;;;;4.78;65.32;100675.47;1976826;28;3560686;-77
2023/01/19 03:58:16;;;;;;;;;23.40;20.00;;;;;4.79;65.70;100665.94;1996613;28;3560614;-77
2023/01/19 03:59:28;;;;;;;;;21.33;19.00;;;;;4.79;65.66;100668.53;1987643;28;2828435;-77
2023/01/19 04:00:39;;;;;;;;;25.50;20.00;;;;;4.82;65.49;100671.09;1986631;28;2834656;-77
2023/01/19 04:01:49;;;;;;;;;21.00;20.00;;;;;4.82;65.55;100671.09;1974825;28;2826288;-77
2023/01/19 04:03:02;;;;;;;;;22.00;20.00;;;;;4.83;65.69;100675.44;1977111;28;2829449;-77
2023/01/19 04:04:14;;;;;;;;;24.80;19.40;;;;;4.83;65.63;100667.63;1980374;28;2833548;-77
2023/01/19 04:05:25;;;;;;;;;25.00;20.00;;;;;4.86;65.25;100678.00;1967789;28;2829410;-77
2023/01/19 04:06:38;;;;;;;;;27.00;20.67;;;;;4.86;65.49;100678.00;1972897;28;3585612;-78
2023/01/19 04:07:52;;;;;;;;;25.00;21.00;;;;;4.87;65.33;100678.84;1982708;28;3571061;-78
2023/01/19 04:09:04;;;;;;;;;20.67;16.33;;;;;4.86;64.51;100675.41;1984174;28;2818003;-78
2023/01/19 04:10:17;;;;;;;;;20.00;14.50;;;;;4.86;65.37;100672.81;1976668;28;2831516;-78
2023/01/19 04:11:27;;;;;;;;;19.00;19.00;;;;;4.87;65.20;100676.25;1954515;28;2831515;-77
2023/01/19 04:12:39;;;;;;;;;24.50;19.00;;;;;4.86;65.03;100674.53;1970933;28;2833568;-77
2023/01/19 04:13:51;;;;;;;;;18.17;17.33;;;;;4.85;65.03;100676.28;1982559;28;2819009;-77
2023/01/19 04:15:03;;;;;;;;;24.00;18.50;;;;;4.83;65.26;100686.72;1971441;28;2833608;-77
2023/01/19 04:16:18;;;;;;;;;20.50;17.00;;;;;4.83;65.25;100672.81;1959303;28;2827346;-77
2023/01/19 04:17:30;;;;;;;;;24.67;19.00;;;;;4.84;64.88;100680.63;1961118;28;2824795;-77
2023/01/19 04:18:42;;;;;;;;;25.67;20.67;;;;;4.83;64.51;100678.03;1984030;28;3581502;-77
2023/01/19 04:19:53;;;;;;;;;20.67;19.67;;;;;4.83;65.16;100678.03;1997615;28;2831620;-77
2023/01/19 04:21:06;;;;;;;;;25.33;20.67;;;;;4.83;65.10;100675.44;1991013;28;3577307;-77
2023/01/19 04:22:17;;;;;;;;;25.00;20.00;;;;;4.82;64.63;100681.50;1990516;28;3568971;-77
2023/01/19 04:23:32;;;;;;;;;26.00;19.83;;;;;4.81;64.50;100685.00;2016603;28;2849615;-77
2023/01/19 04:24:44;;;;;;;;;23.20;19.00;;;;;4.81;64.84;100685.00;1980674;28;2829448;-77
2023/01/19 04:26:01;;;;;;;;;23.00;16.50;;;;;4.78;65.12;100685.91;1977513;28;2831862;-77
2023/01/19 04:27:13;;;;;;;;;18.00;16.50;;;;;4.77;65.13;100680.69;1962544;28;2823183;-77
2023/01/19 04:28:25;;;;;;;;;25.00;20.50;;;;;4.75;65.02;100685.91;1955900;28;2836736;-77
2023/01/19 04:29:35;;;;;;;;;17.50;15.00;;;;;4.73;64.98;100678.13;1954247;28;2806506;-77
2023/01/19 04:30:49;;;;;;;;;24.33;20.00;;;;;4.73;65.01;100675.53;1994094;28;3574195;-77
2023/01/19 04:32:00;;;;;;;;;23.00;18.00;;;;;4.75;65.07;100679.84;1985293;28;2829421;-77
2023/01/19 04:33:12;;;;;;;;;20.00;18.00;;;;;4.73;65.13;100678.13;1980292;28;2826292;-77
2023/01/19 04:34:22;;;;;;;;;19.00;15.00;;;;;4.73;64.84;100670.31;1974537;28;2805991;-77
2023/01/19 04:35:34;;;;;;;;;19.00;16.00;;;;;4.74;65.15;100671.19;1970594;28;2811741;-77
2023/01/19 04:36:45;;;;;;;;;19.67;17.67;;;;;4.72;65.06;100673.78;1983969;28;2829511;-77
2023/01/19 04:37:59;;;;;;;;;19.67;17.33;;;;;4.72;65.14;100679.00;2013374;28;1837813;-77
2023/01/19 04:39:10;;;;;;;;;18.00;11.25;;;;;4.71;65.01;100679.88;1976546;28;1853450;-77
2023/01/19 04:40:21;;;;;;;;;20.00;17.00;;;;;4.69;64.99;100671.19;1976882;28;2813816;-77
2023/01/19 04:41:32;;;;;;;;;17.50;16.50;;;;;4.69;65.25;100666.00;1979355;28;1841963;-77
2023/01/19 04:42:46;;;;;;;;;19.57;17.71;;;;;4.70;65.18;100678.16;1982955;28;1837743;-77
2023/01/19 04:43:56;;;;;;;;;18.50;13.00;;;;;4.71;65.05;100669.47;1980586;28;2812775;-77
2023/01/19 04:45:08;;;;;;;;;15.50;12.50;;;;;4.71;65.30;100671.22;2002231;28;2800265;-77
2023/01/19 04:46:18;;;;;;;;;18.00;17.00;;;;;4.71;65.06;100677.28;1992292;28;2816934;-77
2023/01/19 04:47:29;;;;;;;;;19.50;17.50;;;;;4.70;65.06;100678.16;1970877;28;2827306;-77
2023/01/19 04:48:41;;;;;;;;;18.75;17.75;;;;;4.68;64.62;100677.31;1993516;28;1839873;-77
2023/01/19 04:49:52;;;;;;;;;19.33;16.33;;;;;4.67;64.73;100677.31;1961060;28;2825285;-77
2023/01/19 04:51:05;;;;;;;;;22.17;18.00;;;;;4.66;64.58;100676.47;2013218;28;1844048;-77
2023/01/19 04:52:16;;;;;;;;;16.00;16.00;;;;;4.64;65.32;100669.53;1967505;28;2819017;-77
2023/01/19 04:53:28;;;;;;;;;22.60;16.40;;;;;4.64;65.16;100669.53;1984785;28;1840919;-77
2023/01/19 04:54:38;;;;;;;;;17.00;14.00;;;;;4.64;65.20;100666.94;1975099;28;2831476;-77
2023/01/19 04:55:54;;;;;;;;;17.50;16.00;;;;;4.64;65.28;100674.75;1975540;28;2824221;-77
2023/01/19 04:57:04;;;;;;;;;20.00;17.00;;;;;4.63;64.89;100671.28;1959241;28;2827350;-77
2023/01/19 04:58:15;;;;;;;;;20.00;16.00;;;;;4.63;64.79;100675.63;1969208;28;2825223;-77
2023/01/19 04:59:27;;;;;;;;;21.00;17.00;;;;;4.61;65.00;100670.44;1968767;28;2822126;-77
2023/01/19 05:00:39;;;;;;;;;20.00;16.33;;;;;4.61;65.64;100670.44;1978401;28;1829418;-77
2023/01/19 05:01:50;;;;;;;;;21.00;20.00;;;;;4.61;65.27;100665.22;1968892;28;2826253;-77
2023/01/19 05:03:02;;;;;;;;;20.00;17.67;;;;;4.62;65.23;100677.34;1978843;28;2829531;-77
2023/01/19 05:04:13;;;;;;;;;22.67;17.00;;;;;4.61;65.28;100673.03;1989194;28;3564839;-77
2023/01/19 05:05:26;;;;;;;;;21.00;19.50;;;;;4.62;65.70;100685.16;1995699;28;2827874;-77
2023/01/19 05:06:39;;;;;;;;;24.50;18.00;;;;;4.63;65.63;100673.00;1990968;28;1839883;-77
2023/01/19 05:07:50;;;;;;;;;26.00;19.00;;;;;4.63;65.76;100679.09;1961918;28;3575602;-77
2023/01/19 05:09:02;;;;;;;;;23.67;19.67;;;;;4.64;65.35;100679.97;1999657;28;2827467;-77
2023/01/19 05:10:14;;;;;;;;;24.33;17.00;;;;;4.63;65.17;100683.41;1984538;28;3566924;-77
2023/01/19 05:11:28;;;;;;;;;19.83;14.17;;;;;4.60;65.11;100686.91;2021165;28;1834139;-77
2023/01/19 05:12:41;;;;;;;;;22.50;16.50;;;;;4.56;65.40;100674.81;1991825;28;1839933;-77
2023/01/19 05:13:52;;;;;;;;;17.00;14.00;;;;;4.54;65.34;100679.16;1957925;28;2811797;-77
2023/01/19 05:15:04;;;;;;;;;23.50;19.00;;;;;4.54;65.70;100676.56;1984036;28;2824260;-77
2023/01/19 05:16:14;;;;;;;;;16.50;15.00;;;;;4.54;65.57;100681.78;1959505;28;2812762;-77
2023/01/19 05:17:25;;;;;;;;;24.50;17.25;;;;;4.55;65.26;100680.88;1980448;28;1839898;-77
2023/01/19 05:18:36;;;;;;;;;16.50;14.00;;;;;4.55;65.38;100680.88;1961416;28;2819025;-77
2023/01/19 05:19:47;;;;;;;;;17.00;13.00;;;;;4.53;65.18;100674.84;1974463;28;2797102;-77
2023/01/19 05:20:58;;;;;;;;;20.50;16.00;;;;;4.54;65.48;100684.38;1978482;28;2838808;-77
2023/01/19 05:22:09;;;;;;;;;17.25;15.50;;;;;4.54;65.85;100685.25;1978797;28;1833719;-77
2023/01/19 05:23:20;;;;;;;;;23.50;18.50;;;;;4.53;65.28;100677.44;1954064;28;2823132;-77
2023/01/19 05:24:32;;;;;;;;;13.75;12.75;;;;;4.54;65.78;100686.97;1979369;28;1859132;-77
2023/01/19 05:25:43;;;;;;;;;18.00;18.00;;;;;4.53;65.48;100682.63;1976507;28;2817979;-77
2023/01/19 05:26:53;;;;;;;;;19.00;15.00;;;;;4.53;65.33;100686.13;1954265;28;2802375;-77
2023/01/19 05:28:05;;;;;;;;;18.00;13.00;;;;;4.54;65.64;100679.16;1967343;28;2817979;-77
2023/01/19 05:29:15;;;;;;;;;15.50;12.00;;;;;4.55;65.84;100689.56;1969485;28;2794017;-77
2023/01/19 05:30:27;;;;;;;;;22.00;16.00;;;;;4.55;65.78;100683.50;2001234;28;2841937;-77
2023/01/19 05:31:38;;;;;;;;;24.80;17.60;;;;;4.56;65.65;100683.50;1980432;28;1836735;-77
2023/01/19 05:32:49;;;;;;;;;17.00;15.50;;;;;4.56;65.41;100691.31;1952703;28;2811039;-77
2023/01/19 05:34:02;;;;;;;;;23.67;20.33;;;;;4.57;65.70;100687.81;1959845;28;3564796;-77
2023/01/19 05:35:15;;;;;;;;;25.00;21.00;;;;;4.57;65.86;100685.19;1981719;28;3573176;-77
2023/01/19 05:36:26;;;;;;;;;24.33;21.00;;;;;4.57;65.75;100684.31;1982356;28;2833675;-77
2023/01/19 05:37:38;;;;;;;;;25.67;21.00;;;;;4.58;65.84;100684.34;1976311;28;3593993;-77
2023/01/19 05:38:50;;;;;;;;;25.67;20.00;;;;;4.57;65.59;100684.31;1986275;28;3575347;-77
2023/01/19 05:40:02;;;;;;;;;26.33;18.67;;;;;4.56;65.64;100687.81;1995041;28;3575252;-77
2023/01/19 05:41:14;;;;;;;;;28.33;26.67;;;;;4.54;66.08;100686.97;1989076;28;3594001;-77
2023/01/19 05:42:25;;;;;;;;;20.40;18.20;;;;;4.56;65.99;100687.81;2008932;28;1839348;-77
2023/01/19 05:43:37;;;;;;;;;27.00;20.33;;;;;4.56;66.17;100687.81;1980047;28;3566888;-77
2023/01/19 05:44:49;;;;;;;;;25.33;20.67;;;;;4.56;65.73;100688.69;1997092;28;2838896;-77